Time;durP1;ratioP1;P1;durP2;ratioP2;P2;SDS_P1;SDS_P2;PMS_P1;PMS_P2;Temp;Humidity;BMP_temperature;BMP_pressure;BME280_temperature;BME280_humidity;BME280_pressure;Samples;Min_cycle;Max_cycle;Signal;HPM_P1;HPM_P2
2022/11/15 00:00:44;;;;;;;94.28;28.35;;;11.30;99.90;;;;;;4989396;28;25094;-72
2022/11/15 00:03:09;;;;;;;93.88;26.67;;;11.30;99.90;;;;;;4982110;28;25114;-72
2022/11/15 00:05:35;;;;;;;87.45;26.88;;;11.40;99.90;;;;;;4982478;28;25084;-75
2022/11/15 00:08:01;;;;;;;96.38;28.65;;;11.50;99.90;;;;;;4984714;28;25076;-73
2022/11/15 00:10:27;;;;;;;101.82;29.83;;;11.60;99.90;;;;;;4993150;28;25089;-71
2022/11/15 00:12:52;;;;;;;111.78;30.05;;;11.50;99.90;;;;;;4985907;28;25146;-70
2022/11/15 00:15:18;;;;;;;96.28;27.90;;;11.70;99.90;;;;;;4985434;28;25080;-74
2022/11/15 00:17:44;;;;;;;96.20;29.45;;;11.70;99.90;;;;;;4989909;28;25097;-72
2022/11/15 00:20:11;;;;;;;99.60;29.98;;;11.60;99.90;;;;;;4983796;28;25061;-73
2022/11/15 00:22:36;;;;;;;93.78;28.05;;;11.60;99.90;;;;;;4982470;28;25115;-73
2022/11/15 00:25:03;;;;;;;90.22;28.83;;;11.80;99.90;;;;;;4986393;28;25092;-73
2022/11/15 00:27:28;;;;;;;98.57;29.02;;;11.80;99.90;;;;;;4990204;28;25056;-70
2022/11/15 00:29:54;;;;;;;140.98;34.65;;;11.90;99.90;;;;;;4993349;28;25119;-72
2022/11/15 00:32:19;;;;;;;136.05;35.55;;;11.80;99.90;;;;;;5001662;28;25095;-72
2022/11/15 00:34:45;;;;;;;101.95;29.33;;;11.80;99.90;;;;;;4991788;28;25149;-73
2022/11/15 00:37:11;;;;;;;105.45;30.90;;;11.90;99.90;;;;;;4984921;28;25067;-71
2022/11/15 00:39:36;;;;;;;107.18;33.08;;;12.00;99.90;;;;;;4981726;28;25082;-72
2022/11/15 00:42:02;;;;;;;113.07;31.45;;;11.90;99.90;;;;;;4980936;28;25086;-72
2022/11/15 00:44:27;;;;;;;104.82;29.80;;;12.00;99.90;;;;;;4987650;28;25098;-73
2022/11/15 00:46:53;;;;;;;112.90;32.80;;;12.10;99.90;;;;;;4989364;28;25138;-72
2022/11/15 00:49:18;;;;;;;109.53;32.03;;;12.20;99.90;;;;;;4981981;28;25102;-72
2022/11/15 00:51:44;;;;;;;117.93;31.75;;;12.20;99.90;;;;;;4983415;28;25060;-73
2022/11/15 00:54:10;;;;;;;124.30;33.92;;;12.30;99.90;;;;;;4985061;28;25154;-73
2022/11/15 00:56:35;;;;;;;120.43;34.08;;;12.30;99.90;;;;;;4990579;28;25109;-71
2022/11/15 00:59:01;;;;;;;104.68;30.83;;;12.30;99.90;;;;;;4992159;28;25084;-72
2022/11/15 01:01:26;;;;;;;139.00;32.92;;;12.30;99.90;;;;;;4984297;28;25163;-73
2022/11/15 01:03:52;;;;;;;102.57;33.92;;;12.50;99.90;;;;;;5003587;28;25072;-74
2022/11/15 01:06:18;;;;;;;110.18;32.38;;;12.50;99.90;;;;;;4991424;28;25133;-71
2022/11/15 01:08:43;;;;;;;124.95;33.47;;;12.60;99.90;;;;;;4988589;28;25105;-74
2022/11/15 01:11:11;;;;;;;104.40;30.95;;;12.60;99.90;;;;;;4988514;28;25137;-72
2022/11/15 01:13:38;;;;;;;117.30;32.35;;;12.70;99.90;;;;;;5008821;28;25152;-73
2022/11/15 01:16:12;;;;;;;106.57;31.75;;;12.80;99.90;;;;;;5001716;28;25143;-70
2022/11/15 01:18:38;;;;;;;95.78;30.63;;;12.70;99.90;;;;;;5007902;28;25084;-71
2022/11/15 01:21:12;;;;;;;105.35;30.63;;;12.60;99.90;;;;;;5009264;28;25057;-73
2022/11/15 01:23:38;;;;;;;105.25;33.50;;;12.90;99.90;;;;;;4995397;28;25057;-71
2022/11/15 01:26:05;;;;;;;90.70;31.10;;;12.90;99.90;;;;;;4985718;28;25054;-70
2022/11/15 01:28:33;;;;;;;93.10;26.40;;;12.90;99.90;;;;;;4986625;28;25122;-72
2022/11/15 01:30:59;;;;;;;95.32;29.95;;;12.90;99.90;;;;;;4994424;28;25058;-71
2022/11/15 01:33:25;;;;;;;96.57;29.70;;;12.90;99.90;;;;;;4987647;28;25118;-72
2022/11/15 01:35:51;;;;;;;87.45;30.40;;;12.80;99.90;;;;;;5000441;28;25057;-72
2022/11/15 01:38:16;;;;;;;78.93;27.88;;;13.00;99.90;;;;;;5002462;28;25171;-72
2022/11/15 01:40:42;;;;;;;74.50;28.63;;;13.10;99.90;;;;;;5002910;28;25046;-70
2022/11/15 01:43:35;;;;;;;80.68;28.35;;;13.10;99.90;;;;;;4991222;28;25117;-73
2022/11/15 01:46:21;;;;;;;78.15;28.17;;;13.20;99.90;;;;;;4986128;28;25197;-73
2022/11/15 01:48:47;;;;;;;85.47;29.10;;;13.20;99.90;;;;;;4989652;28;25089;-73
2022/11/15 01:51:17;;;;;;;77.22;28.17;;;13.20;99.90;;;;;;4986316;28;25048;-72
2022/11/15 01:53:45;;;;;;;81.72;28.50;;;13.20;99.90;;;;;;4992075;28;25078;-73
2022/11/15 01:56:15;;;;;;;71.65;27.40;;;13.30;99.90;;;;;;4987144;28;25046;-71
2022/11/15 01:58:41;;;;;;;73.75;27.20;;;13.30;99.90;;;;;;4993961;28;25080;-75
2022/11/15 02:01:07;;;;;;;67.30;26.13;;;13.20;99.90;;;;;;4988071;28;25115;-71
2022/11/15 02:03:44;;;;;;;79.07;27.90;;;13.30;99.90;;;;;;4986376;28;25081;-73
2022/11/15 02:06:10;;;;;;;63.08;24.35;;;13.40;99.90;;;;;;4996424;28;25078;-72
2022/11/15 02:08:35;;;;;;;69.03;25.73;;;13.50;99.90;;;;;;4989062;28;25065;-71
2022/11/15 02:11:03;;;;;;;63.67;25.95;;;13.60;99.90;;;;;;4993179;28;25066;-74
2022/11/15 02:13:29;;;;;;;67.25;24.85;;;13.60;99.90;;;;;;4989634;28;25093;-72
2022/11/15 02:16:03;;;;;;;67.63;24.08;;;13.60;99.90;;;;;;4985269;28;25131;-72
2022/11/15 02:18:36;;;;;;;64.32;24.30;;;13.70;99.90;;;;;;4997999;28;25056;-71
2022/11/15 02:21:36;;;;;;;58.67;23.58;;;13.90;99.90;;;;;;5007613;28;25145;-73
2022/11/15 02:24:22;;;;;;;62.33;25.17;;;13.90;99.90;;;;;;4983000;28;25150;-74
2022/11/15 02:27:01;;;;;;;54.45;21.45;;;13.90;99.90;;;;;;4983984;28;25052;-72
2022/11/15 02:29:52;;;;;;;49.15;21.85;;;14.10;99.90;;;;;;4999724;28;25062;-71
2022/11/15 02:32:50;;;;;;;55.42;22.00;;;14.10;99.90;;;;;;4977017;28;25071;-73
2022/11/15 02:35:59;;;;;;;53.28;23.27;;;14.30;99.90;;;;;;4982315;28;25143;-73
2022/11/15 02:38:52;;;;;;;48.30;19.60;;;14.20;99.90;;;;;;4989832;28;25074;-73
2022/11/15 02:41:30;;;;;;;49.65;20.10;;;14.30;99.90;;;;;;4982354;28;25064;-71
2022/11/15 02:43:59;;;;;;;50.78;21.73;;;14.40;99.90;;;;;;4988227;28;25092;-72
2022/11/15 02:47:12;;;;;;;48.80;21.35;;;14.50;99.90;;;;;;5006879;28;25100;-72
2022/11/15 02:49:50;;;;;;;49.00;21.52;;;14.50;99.90;;;;;;4981892;28;25068;-72
2022/11/15 02:52:23;;;;;;;52.67;20.13;;;14.50;99.90;;;;;;4988600;28;25063;-72
2022/11/15 02:55:00;;;;;;;58.50;21.83;;;14.50;99.90;;;;;;4989658;28;25066;-71
2022/11/15 02:57:51;;;;;;;46.95;21.35;;;14.60;99.90;;;;;;4989444;28;25077;-72
2022/11/15 03:00:19;;;;;;;52.15;20.63;;;14.60;99.90;;;;;;4985797;28;25090;-73
2022/11/15 03:03:21;;;;;;;38.83;19.42;;;14.70;99.90;;;;;;4985264;28;25167;-72
2022/11/15 03:05:56;;;;;;;47.17;20.95;;;14.80;99.90;;;;;;4982748;28;25094;-73
2022/11/15 03:08:55;;;;;;;43.92;19.95;;;14.80;99.90;;;;;;4990319;28;25143;-73
2022/11/15 03:11:22;;;;;;;56.92;21.02;;;15.00;99.90;;;;;;4986127;28;25053;-72
2022/11/15 03:13:57;;;;;;;45.45;19.45;;;15.00;99.90;;;;;;4988760;28;25114;-75
2022/11/15 03:16:46;;;;;;;44.05;20.05;;;15.10;99.90;;;;;;4975911;28;25047;-73
2022/11/15 03:19:27;;;;;;;40.63;18.05;;;15.10;99.90;;;;;;4981100;28;25088;-72
2022/11/15 03:21:54;;;;;;;38.05;18.92;;;15.20;99.90;;;;;;4986261;28;25133;-74
2022/11/15 03:24:23;;;;;;;44.50;18.75;;;15.30;99.90;;;;;;4997040;28;25129;-73
2022/11/15 03:26:50;;;;;;;39.20;18.23;;;15.20;99.90;;;;;;4985262;28;25053;-72
2022/11/15 03:29:21;;;;;;;44.95;18.88;;;15.30;99.90;;;;;;4982692;28;25063;-73
2022/11/15 03:31:55;;;;;;;35.30;17.45;;;15.40;99.90;;;;;;4985264;28;25049;-73
2022/11/15 03:34:36;;;;;;;37.13;17.27;;;15.40;99.90;;;;;;4982964;28;25044;-72
2022/11/15 03:37:01;;;;;;;43.05;18.10;;;15.40;99.90;;;;;;4989027;28;25082;-73
2022/11/15 03:39:28;;;;;;;37.70;16.75;;;15.50;99.90;;;;;;4991542;28;25100;-72
2022/11/15 03:42:21;;;;;;;41.55;16.67;;;15.50;99.90;;;;;;4988673;28;25149;-73
2022/11/15 03:44:56;;;;;;;28.48;15.23;;;15.40;99.90;;;;;;4990493;28;25105;-72
2022/11/15 03:47:34;;;;;;;34.50;16.40;;;15.50;99.90;;;;;;4980710;28;24779;-74
2022/11/15 03:50:13;;;;;;;36.67;16.48;;;15.70;99.90;;;;;;4984910;28;25081;-74
2022/11/15 03:52:40;;;;;;;33.72;16.17;;;15.60;99.90;;;;;;4987820;28;25129;-74
2022/11/15 03:55:10;;;;;;;32.45;16.63;;;15.60;99.90;;;;;;5004770;28;25070;-73
2022/11/15 03:57:35;;;;;;;37.28;18.10;;;15.70;99.90;;;;;;4983507;28;25096;-74
2022/11/15 04:00:01;;;;;;;33.45;16.25;;;15.70;99.90;;;;;;4984281;28;25153;-71
2022/11/15 04:02:28;;;;;;;39.30;17.90;;;15.70;99.90;;;;;;4982111;28;25059;-75
2022/11/15 04:04:53;;;;;;;30.85;16.25;;;15.70;99.90;;;;;;4985637;28;25133;-74
2022/11/15 04:07:19;;;;;;;32.78;15.63;;;15.70;99.90;;;;;;4977654;28;25152;-73
2022/11/15 04:10:03;;;;;;;34.00;15.90;;;15.80;99.90;;;;;;4989840;28;25078;-72
2022/11/15 04:12:42;;;;;;;34.78;15.50;;;15.80;99.90;;;;;;4992077;28;25052;-72
2022/11/15 04:15:11;;;;;;;28.35;14.00;;;15.70;99.90;;;;;;5006339;28;25146;-72
2022/11/15 04:17:47;;;;;;;27.70;13.52;;;15.70;99.90;;;;;;4989257;28;25056;-73
2022/11/15 04:25:59;;;;;;;31.95;14.27;;;15.60;99.90;;;;;;4990561;28;25097;-74
2022/11/15 04:28:24;;;;;;;34.13;15.68;;;15.60;99.90;;;;;;4982896;28;25112;-73
2022/11/15 04:30:50;;;;;;;30.10;13.80;;;15.50;99.90;;;;;;4988478;28;25065;-73
2022/11/15 04:33:16;;;;;;;31.58;14.85;;;15.50;99.90;;;;;;4994492;28;25130;-72
2022/11/15 04:35:42;;;;;;;32.85;15.35;;;15.40;99.90;;;;;;4989701;28;25076;-73
2022/11/15 04:38:10;;;;;;;38.13;15.07;;;15.50;99.90;;;;;;4983424;28;25089;-74
2022/11/15 04:40:37;;;;;;;39.17;14.75;;;15.40;99.90;;;;;;4987799;28;25068;-73
2022/11/15 04:43:03;;;;;;;32.22;15.07;;;15.40;99.90;;;;;;4985372;28;25081;-74
2022/11/15 04:45:29;;;;;;;26.75;13.82;;;15.20;99.90;;;;;;4985879;28;25080;-72
2022/11/15 04:47:54;;;;;;;27.63;14.77;;;15.20;99.90;;;;;;4991643;28;25072;-72
2022/11/15 04:50:20;;;;;;;31.73;14.80;;;15.20;99.90;;;;;;4988704;28;25055;-74
2022/11/15 04:52:53;;;;;;;31.25;15.75;;;15.20;99.90;;;;;;4988624;28;25123;-74
2022/11/15 04:55:19;;;;;;;27.10;13.52;;;15.10;99.90;;;;;;4989680;28;25093;-75
2022/11/15 04:57:44;;;;;;;33.15;14.20;;;15.10;99.90;;;;;;4983037;28;25101;-72
2022/11/15 05:00:13;;;;;;;31.13;13.60;;;15.10;99.90;;;;;;4984498;28;25073;-73
2022/11/15 05:05:24;;;;;;;29.13;13.90;;;15.10;99.90;;;;;;4988020;28;25100;-74
2022/11/15 05:07:50;;;;;;;29.88;14.18;;;15.20;99.90;;;;;;4985914;28;25064;-73
2022/11/15 05:10:16;;;;;;;27.48;13.68;;;15.30;99.90;;;;;;4983612;28;25100;-71
2022/11/15 05:12:42;;;;;;;26.33;13.65;;;15.30;99.90;;;;;;4998046;28;25080;-72
2022/11/15 05:15:08;;;;;;;27.33;13.68;;;15.30;99.90;;;;;;4984894;28;25100;-74
2022/11/15 05:17:34;;;;;;;28.30;13.82;;;15.20;99.90;;;;;;4984746;28;25156;-73
2022/11/15 05:19:59;;;;;;;28.60;12.90;;;15.20;99.90;;;;;;4985751;28;25071;-74
2022/11/15 05:22:25;;;;;;;40.45;13.60;;;15.20;99.90;;;;;;4989374;28;25084;-73
2022/11/15 05:24:51;;;;;;;26.55;12.48;;;15.30;99.90;;;;;;4993394;28;25126;-72
2022/11/15 05:27:17;;;;;;;27.02;13.38;;;15.30;99.90;;;;;;4986818;28;25078;-73
2022/11/15 05:29:42;;;;;;;26.52;11.80;;;15.30;99.90;;;;;;5002291;28;25073;-73
2022/11/15 05:32:10;;;;;;;26.67;11.95;;;15.20;99.90;;;;;;4992771;28;25181;-72
2022/11/15 05:34:35;;;;;;;25.20;11.43;;;15.20;99.90;;;;;;4989169;28;25055;-75
2022/11/15 05:37:01;;;;;;;25.65;12.02;;;15.00;99.90;;;;;;4994515;28;25153;-72
2022/11/15 05:39:27;;;;;;;31.73;13.13;;;15.10;99.90;;;;;;4982159;28;25104;-74
2022/11/15 05:41:57;;;;;;;21.05;11.57;;;15.10;99.90;;;;;;4992634;28;25164;-75
2022/11/15 05:44:26;;;;;;;29.10;13.27;;;15.10;99.90;;;;;;4985713;28;25086;-72
2022/11/15 05:46:54;;;;;;;30.27;12.10;;;15.10;99.90;;;;;;4992200;28;25072;-73
2022/11/15 05:49:24;;;;;;;26.60;12.95;;;15.00;99.90;;;;;;4985798;28;25052;-72
2022/11/15 05:51:51;;;;;;;24.17;12.52;;;15.00;99.90;;;;;;4989925;28;25099;-74
2022/11/15 05:54:19;;;;;;;27.25;13.30;;;14.90;99.90;;;;;;4996244;28;25058;-74
2022/11/15 05:56:44;;;;;;;24.40;11.00;;;14.80;99.90;;;;;;4990168;28;25147;-72
2022/11/15 05:59:11;;;;;;;23.38;10.75;;;14.80;99.90;;;;;;4993710;28;25058;-72
2022/11/15 06:01:38;;;;;;;23.00;12.35;;;14.70;99.90;;;;;;4997551;28;25161;-72
2022/11/15 06:04:04;;;;;;;23.15;11.73;;;14.80;99.90;;;;;;5002972;28;25090;-72
2022/11/15 06:06:30;;;;;;;23.38;11.80;;;14.70;99.90;;;;;;4991749;28;25187;-73
2022/11/15 06:08:55;;;;;;;35.15;11.68;;;14.60;99.90;;;;;;4984302;28;25074;-74
2022/11/15 06:11:21;;;;;;;25.88;11.02;;;14.60;99.90;;;;;;4980984;28;25063;-71
2022/11/15 06:13:47;;;;;;;27.92;11.90;;;14.70;99.90;;;;;;4976357;28;25167;-74
2022/11/15 06:16:12;;;;;;;23.67;11.40;;;14.70;99.90;;;;;;4979370;28;25116;-73
2022/11/15 06:18:39;;;;;;;28.77;12.15;;;14.50;99.90;;;;;;4978957;28;25108;-74
2022/11/15 06:21:05;;;;;;;28.80;11.38;;;14.50;99.90;;;;;;4981597;28;25075;-74
2022/11/15 06:23:35;;;;;;;21.17;10.35;;;14.40;99.90;;;;;;4984746;28;25114;-73
2022/11/15 06:26:03;;;;;;;23.40;10.75;;;14.40;99.90;;;;;;4987586;28;25065;-72
2022/11/15 06:28:30;;;;;;;20.27;10.13;;;14.40;99.90;;;;;;4983749;28;25057;-72
2022/11/15 06:30:56;;;;;;;18.38;10.43;;;14.40;99.90;;;;;;4982976;28;25056;-72
2022/11/15 06:33:21;;;;;;;24.02;10.75;;;14.30;99.90;;;;;;4983487;28;25069;-74
2022/11/15 06:35:47;;;;;;;24.35;10.15;;;14.10;99.90;;;;;;4982991;28;25081;-74
2022/11/15 06:38:12;;;;;;;20.30;9.35;;;14.10;99.90;;;;;;4989333;28;25085;-73
2022/11/15 06:40:39;;;;;;;19.98;9.77;;;14.00;99.90;;;;;;4986397;28;25070;-75
2022/11/15 06:43:06;;;;;;;19.85;9.65;;;13.90;99.90;;;;;;4988794;28;25085;-73
2022/11/15 06:45:32;;;;;;;26.75;10.52;;;14.00;99.90;;;;;;5008616;28;25095;-73
2022/11/15 06:47:58;;;;;;;24.13;10.07;;;13.90;99.90;;;;;;4994774;28;25058;-75
2022/11/15 06:50:25;;;;;;;27.40;11.02;;;13.90;99.90;;;;;;5003239;28;25065;-75
2022/11/15 06:52:50;;;;;;;17.80;10.23;;;14.00;99.90;;;;;;4997833;28;25115;-74
2022/11/15 06:55:16;;;;;;;23.73;10.38;;;14.00;99.90;;;;;;5001444;28;25182;-73
2022/11/15 06:57:52;;;;;;;22.40;10.45;;;13.80;99.90;;;;;;5001139;28;25306;-74
2022/11/15 07:00:20;;;;;;;23.00;10.32;;;13.70;99.90;;;;;;4998319;28;25094;-75
2022/11/15 07:02:46;;;;;;;17.42;8.98;;;13.60;99.90;;;;;;4989698;28;25064;-75
2022/11/15 07:05:12;;;;;;;23.25;9.70;;;13.70;99.90;;;;;;5002475;28;25077;-75
2022/11/15 07:07:38;;;;;;;17.42;8.93;;;13.80;99.90;;;;;;4997405;28;25072;-74
2022/11/15 07:10:05;;;;;;;19.83;9.18;;;13.80;99.90;;;;;;4988629;28;25057;-76
2022/11/15 07:12:30;;;;;;;19.50;9.27;;;13.80;99.90;;;;;;5002408;28;25070;-74
2022/11/15 07:14:56;;;;;;;18.27;9.00;;;13.90;99.90;;;;;;4999340;28;25059;-73
2022/11/15 07:17:22;;;;;;;17.88;9.55;;;13.80;99.90;;;;;;4987292;28;25075;-74
2022/11/15 07:19:47;;;;;;;19.80;9.95;;;13.70;99.90;;;;;;4989186;28;25077;-75
2022/11/15 07:22:13;;;;;;;26.55;9.75;;;13.70;99.90;;;;;;4992705;28;25095;-75
2022/11/15 07:24:38;;;;;;;16.27;7.82;;;13.60;99.90;;;;;;4986805;28;25151;-74
2022/11/15 07:27:04;;;;;;;17.50;8.23;;;13.50;99.90;;;;;;4989771;28;25105;-73
2022/11/15 07:29:30;;;;;;;23.65;9.27;;;13.40;99.90;;;;;;4995501;28;25066;-74
2022/11/15 07:31:55;;;;;;;18.40;8.35;;;13.30;99.90;;;;;;4990333;28;25087;-74
2022/11/15 07:34:21;;;;;;;14.95;7.47;;;13.40;99.90;;;;;;4999105;28;25083;-74
2022/11/15 07:36:47;;;;;;;14.32;8.07;;;13.40;99.90;;;;;;4996214;28;25100;-74
2022/11/15 07:39:13;;;;;;;15.63;7.30;;;13.50;99.90;;;;;;4996782;28;25097;-76
2022/11/15 07:41:39;;;;;;;17.52;7.78;;;13.50;99.90;;;;;;5005087;28;25083;-74
2022/11/15 07:44:05;;;;;;;19.92;7.85;;;13.50;99.90;;;;;;4992281;28;25136;-75
2022/11/15 07:46:31;;;;;;;15.25;6.90;;;13.40;99.90;;;;;;4986050;28;25062;-75
2022/11/15 07:48:57;;;;;;;13.70;7.35;;;13.30;99.90;;;;;;4986953;28;25167;-75
2022/11/15 07:51:23;;;;;;;21.67;7.78;;;13.30;99.90;;;;;;4992138;28;25069;-73
2022/11/15 07:53:49;;;;;;;15.98;6.97;;;13.50;99.90;;;;;;4984982;28;25128;-74
2022/11/15 07:56:15;;;;;;;21.92;7.28;;;13.40;99.90;;;;;;4993341;28;25061;-74
2022/11/15 07:58:40;;;;;;;15.68;7.60;;;13.50;99.90;;;;;;4989359;28;25075;-74
2022/11/15 08:01:08;;;;;;;16.95;7.80;;;13.60;99.90;;;;;;4991455;28;25058;-74
2022/11/15 08:03:34;;;;;;;15.65;7.13;;;13.60;99.90;;;;;;4988244;28;25077;-76
2022/11/15 08:06:00;;;;;;;16.67;6.80;;;13.40;99.90;;;;;;4991749;28;25060;-75
2022/11/15 08:08:25;;;;;;;17.42;7.50;;;13.30;99.90;;;;;;4993746;28;25129;-75
2022/11/15 08:10:51;;;;;;;16.77;6.03;;;13.30;99.90;;;;;;4994207;28;25123;-73
2022/11/15 08:13:17;;;;;;;15.32;5.78;;;13.40;99.90;;;;;;4993708;28;25043;-75
2022/11/15 08:15:43;;;;;;;15.10;6.50;;;13.30;99.90;;;;;;5005360;28;25098;-75
2022/11/15 08:18:14;;;;;;;14.00;6.00;;;13.40;99.90;;;;;;4995541;28;25047;-75
2022/11/15 08:20:40;;;;;;;13.05;6.20;;;13.40;99.90;;;;;;4986470;28;25092;-74
2022/11/15 08:23:07;;;;;;;11.45;6.10;;;13.40;99.90;;;;;;4983718;28;25101;-75
2022/11/15 08:25:34;;;;;;;9.63;5.35;;;13.50;99.90;;;;;;4982203;28;25073;-74
2022/11/15 08:28:02;;;;;;;16.38;6.10;;;13.40;99.90;;;;;;4998968;28;25132;-74
2022/11/15 08:30:29;;;;;;;18.35;6.53;;;13.40;99.90;;;;;;4998428;28;25054;-76
2022/11/15 08:32:57;;;;;;;11.13;6.47;;;13.40;99.90;;;;;;5002837;28;25053;-75
2022/11/15 08:35:23;;;;;;;12.65;6.50;;;13.40;99.90;;;;;;4991581;28;25089;-74
2022/11/15 08:37:49;;;;;;;12.77;6.65;;;13.30;99.90;;;;;;4981618;28;25072;-75
2022/11/15 08:40:15;;;;;;;15.07;6.63;;;13.20;99.90;;;;;;4988065;28;25099;-74
2022/11/15 08:42:41;;;;;;;13.05;6.10;;;13.30;99.90;;;;;;4996498;28;24882;-75
2022/11/15 08:45:08;;;;;;;13.32;6.53;;;13.20;99.90;;;;;;5007301;28;25070;-75
2022/11/15 08:47:34;;;;;;;12.32;6.25;;;13.20;99.90;;;;;;4986740;28;25084;-73
2022/11/15 08:50:00;;;;;;;11.63;6.63;;;13.30;99.90;;;;;;5005186;28;25056;-75
2022/11/15 08:52:26;;;;;;;11.38;6.18;;;13.30;99.90;;;;;;4994003;28;25069;-74
2022/11/15 08:54:51;;;;;;;15.60;7.03;;;13.30;99.90;;;;;;4990727;28;25164;-73
2022/11/15 08:57:17;;;;;;;17.58;6.15;;;13.40;99.90;;;;;;4993368;28;25061;-74
2022/11/15 08:59:42;;;;;;;14.23;6.65;;;13.40;99.90;;;;;;4984792;28;25153;-74
2022/11/15 09:02:13;;;;;;;12.57;6.72;;;13.40;99.90;;;;;;4985540;28;25156;-74
2022/11/15 09:04:41;;;;;;;10.93;5.45;;;13.40;99.90;;;;;;4993547;28;25077;-74
2022/11/15 09:07:07;;;;;;;10.60;5.30;;;13.40;99.90;;;;;;5007830;28;25137;-75
2022/11/15 09:09:32;;;;;;;9.60;5.22;;;13.30;99.90;;;;;;4985925;28;25095;-75
2022/11/15 09:11:58;;;;;;;13.85;5.85;;;13.40;99.90;;;;;;4988239;28;25160;-74
2022/11/15 09:14:23;;;;;;;14.57;4.97;;;13.30;99.90;;;;;;4996460;28;25058;-74
2022/11/15 09:16:49;;;;;;;22.02;6.03;;;13.20;99.90;;;;;;4992646;28;25069;-73
2022/11/15 09:19:15;;;;;;;9.43;4.70;;;13.20;99.90;;;;;;4995501;28;25073;-74
2022/11/15 09:21:40;;;;;;;10.10;4.25;;;13.10;99.90;;;;;;5010169;28;25071;-74
2022/11/15 09:24:06;;;;;;;7.38;3.85;;;13.10;99.90;;;;;;4999838;28;25073;-76
2022/11/15 09:26:32;;;;;;;9.48;3.45;;;13.00;99.90;;;;;;4999634;28;25083;-74
2022/11/15 09:28:57;;;;;;;5.00;3.38;;;13.00;99.90;;;;;;5009537;28;25076;-75
2022/11/15 09:31:24;;;;;;;4.80;3.42;;;12.90;99.90;;;;;;4995803;28;25142;-75
2022/11/15 09:33:49;;;;;;;11.93;4.00;;;13.00;99.90;;;;;;4989641;28;25105;-74
2022/11/15 09:36:16;;;;;;;8.68;3.90;;;13.00;99.90;;;;;;4997633;28;25120;-74
2022/11/15 09:38:42;;;;;;;6.18;3.63;;;12.90;99.90;;;;;;5005253;28;25069;-74
2022/11/15 09:41:42;;;;;;;10.75;3.97;;;12.80;99.90;;;;;;4994546;28;25112;-74
2022/11/15 09:44:11;;;;;;;9.70;4.05;;;12.80;99.90;;;;;;4992615;28;25118;-75
2022/11/15 09:46:53;;;;;;;5.57;3.22;;;12.80;99.90;;;;;;4992075;28;25169;-75
2022/11/15 09:49:19;;;;;;;5.50;2.65;;;12.70;99.90;;;;;;4995358;28;25077;-75
2022/11/15 09:51:49;;;;;;;7.35;3.92;;;12.70;99.90;;;;;;5001345;28;25062;-76
2022/11/15 09:54:32;;;;;;;6.55;3.75;;;12.80;99.90;;;;;;4998855;28;25066;-75
2022/11/15 09:57:06;;;;;;;23.38;3.55;;;12.90;99.90;;;;;;4993534;28;25107;-74
2022/11/15 09:59:50;;;;;;;7.38;3.08;;;12.80;99.90;;;;;;4997258;28;25114;-73
2022/11/15 10:02:56;;;;;;;8.02;2.70;;;12.80;99.90;;;;;;4989117;28;25336;-73
2022/11/15 10:05:24;;;;;;;6.38;2.95;;;12.80;99.90;;;;;;4987490;28;25119;-74
2022/11/15 10:08:27;;;;;;;5.75;2.63;;;12.70;99.90;;;;;;5001159;28;25073;-76
2022/11/15 10:10:57;;;;;;;9.50;3.03;;;12.70;99.90;;;;;;4990884;28;25092;-75
2022/11/15 10:13:32;;;;;;;4.35;2.83;;;12.90;99.90;;;;;;5011775;28;25065;-73
2022/11/15 10:16:43;;;;;;;6.03;2.70;;;12.90;99.90;;;;;;4993536;28;25047;-74
2022/11/15 10:19:28;;;;;;;6.75;2.55;;;12.80;99.90;;;;;;5002739;28;25085;-74
2022/11/15 10:22:19;;;;;;;7.80;2.28;;;12.90;99.90;;;;;;4993174;28;25064;-73
2022/11/15 10:24:45;;;;;;;8.02;3.08;;;13.00;99.90;;;;;;4990007;28;25058;-75
2022/11/15 10:27:17;;;;;;;8.15;3.90;;;13.20;99.90;;;;;;4999445;28;25066;-75
2022/11/15 10:29:47;;;;;;;3.10;1.85;;;13.20;99.90;;;;;;4985472;28;25068;-74
2022/11/15 10:32:16;;;;;;;5.22;2.40;;;13.20;99.90;;;;;;4991083;28;25082;-75
2022/11/15 10:34:42;;;;;;;8.52;2.50;;;13.10;99.90;;;;;;4983769;28;25060;-74
2022/11/15 10:37:08;;;;;;;3.70;2.03;;;13.10;99.90;;;;;;4994987;28;25067;-74
2022/11/15 10:39:34;;;;;;;8.68;2.30;;;13.10;99.90;;;;;;4995331;28;25092;-74
2022/11/15 10:42:16;;;;;;;7.57;1.92;;;13.10;99.90;;;;;;4998377;28;25139;-74
2022/11/15 10:44:43;;;;;;;;;;;13.20;99.90;;;;;;5003529;28;25060;-74
2022/11/15 10:47:35;;;;;;;6.90;2.10;;;13.10;99.90;;;;;;4994060;28;25088;-75
2022/11/15 10:50:06;;;;;;;3.40;1.80;;;13.20;99.90;;;;;;4975630;28;25090;-73
2022/11/15 10:52:34;;;;;;;3.15;1.90;;;13.30;99.90;;;;;;4988546;28;25054;-74
2022/11/15 10:55:15;;;;;;;2.97;1.30;;;13.40;99.90;;;;;;4989830;28;25068;-74
2022/11/15 10:57:50;;;;;;;4.75;1.83;;;13.30;99.90;;;;;;4991551;28;25048;-73
2022/11/15 11:00:18;;;;;;;5.25;1.50;;;13.40;99.90;;;;;;5000375;28;25118;-75
2022/11/15 11:02:56;;;;;;;6.07;1.70;;;13.60;99.90;;;;;;4995413;28;25054;-75
2022/11/15 11:05:32;;;;;;;4.20;1.50;;;13.40;99.90;;;;;;4994692;28;25061;-74
2022/11/15 11:08:15;;;;;;;7.90;1.48;;;13.40;99.90;;;;;;4985103;28;25135;-74
2022/11/15 11:10:59;;;;;;;6.85;1.50;;;13.20;99.90;;;;;;4990818;28;25087;-74
2022/11/15 11:13:30;;;;;;;4.00;1.40;;;13.10;99.90;;;;;;4987092;28;25107;-74
2022/11/15 11:16:22;;;;;;;7.55;1.80;;;13.00;99.90;;;;;;4988481;28;25102;-75
2022/11/15 11:18:47;;;;;;;7.00;1.30;;;13.00;99.90;;;;;;5005190;28;25072;-74
2022/11/15 11:21:53;;;;;;;2.63;1.38;;;13.00;99.90;;;;;;4980737;28;25122;-74
2022/11/15 11:24:32;;;;;;;2.40;1.17;;;13.10;99.90;;;;;;4972650;28;25058;-73
2022/11/15 11:27:18;;;;;;;6.82;2.08;;;13.10;99.90;;;;;;4994604;28;25084;-73
2022/11/15 11:30:08;;;;;;;2.90;1.20;;;13.30;99.90;;;;;;5002543;28;25073;-74
2022/11/15 11:32:58;;;;;;;3.33;1.40;;;13.60;99.90;;;;;;4996486;28;25077;-75
2022/11/15 11:35:51;;;;;;;2.97;1.50;;;13.60;99.90;;;;;;4978938;28;25066;-74
2022/11/15 11:38:36;;;;;;;9.93;1.58;;;13.80;99.90;;;;;;4986812;28;25064;-74
2022/11/15 11:41:08;;;;;;;3.70;1.30;;;14.00;99.90;;;;;;4993000;28;25142;-74
2022/11/15 11:43:46;;;;;;;;;;;14.10;99.90;;;;;;5018980;28;25067;-74
2022/11/15 11:46:56;;;;;;;4.07;1.45;;;14.30;99.90;;;;;;5008078;28;24069;-74
2022/11/15 11:49:39;;;;;;;4.60;1.60;;;14.30;99.90;;;;;;4975065;28;25066;-73
2022/11/15 11:52:30;;;;;;;4.28;1.15;;;14.40;99.90;;;;;;5001971;28;25074;-74
2022/11/15 11:55:23;;;;;;;3.47;1.23;;;14.30;99.90;;;;;;5008813;28;25056;-73
2022/11/15 11:58:14;;;;;;;4.63;1.20;;;14.30;99.90;;;;;;4988408;28;25156;-73
2022/11/15 12:00:49;;;;;;;5.43;1.60;;;14.20;99.90;;;;;;4984016;28;25080;-73
2022/11/15 12:03:45;;;;;;;3.15;1.17;;;14.40;99.90;;;;;;5008947;28;25118;-72
2022/11/15 12:06:35;;;;;;;7.63;1.27;;;14.40;99.90;;;;;;4988176;28;25125;-73
2022/11/15 12:09:26;;;;;;;2.42;0.90;;;14.30;99.90;;;;;;4988577;28;25076;-74
2022/11/15 12:12:18;;;;;;;5.30;1.30;;;14.30;99.90;;;;;;4990874;28;25079;-76
2022/11/15 12:14:51;;;;;;;4.38;1.48;;;14.10;99.90;;;;;;4991904;28;25097;-74
2022/11/15 12:17:22;;;;;;;2.70;1.15;;;14.20;99.90;;;;;;4996204;28;25089;-76
2022/11/15 12:19:48;;;;;;;5.80;1.33;;;14.30;99.90;;;;;;4987199;28;25016;-73
2022/11/15 12:22:40;;;;;;;5.07;2.25;;;14.40;99.90;;;;;;4990281;28;25139;-74
2022/11/15 12:25:22;;;;;;;10.47;3.80;;;14.50;99.90;;;;;;4988928;28;25093;-73
2022/11/15 12:28:11;;;;;;;3.88;1.08;;;14.50;99.90;;;;;;4995429;28;25183;-73
2022/11/15 12:30:59;;;;;;;3.35;1.00;;;14.40;99.90;;;;;;5000413;28;25080;-74
2022/11/15 12:33:38;;;;;;;7.88;1.42;;;14.40;99.90;;;;;;4988073;28;25103;-73
2022/11/15 12:36:12;;;;;;;6.53;0.85;;;14.30;99.90;;;;;;4985567;28;25069;-73
2022/11/15 12:38:50;;;;;;;1.67;0.80;;;14.40;99.90;;;;;;4998818;28;25148;-73
2022/11/15 12:41:18;;;;;;;1.27;0.70;;;14.30;99.90;;;;;;4991413;28;25134;-74
2022/11/15 12:43:45;;;;;;;8.55;1.15;;;14.00;99.90;;;;;;4989776;28;25061;-71
2022/11/15 12:46:29;;;;;;;5.10;1.15;;;13.70;99.90;;;;;;4983703;28;25071;-74
2022/11/15 12:49:07;;;;;;;3.15;1.05;;;13.60;99.90;;;;;;4991228;28;25136;-74
2022/11/15 12:51:42;;;;;;;4.78;1.10;;;13.40;99.90;;;;;;4997172;28;25054;-72
2022/11/15 12:54:22;;;;;;;5.60;1.10;;;13.20;99.90;;;;;;4986102;28;25102;-73
2022/11/15 12:57:03;;;;;;;6.05;0.98;;;13.20;99.90;;;;;;4988582;28;25159;-73
2022/11/15 12:59:58;;;;;;;5.47;0.93;;;13.20;99.90;;;;;;5011229;28;24977;-73
2022/11/15 13:02:30;;;;;;;4.57;1.05;;;13.30;99.90;;;;;;4997584;28;25062;-72
2022/11/15 13:05:19;;;;;;;3.10;0.82;;;13.10;99.90;;;;;;4991238;28;25078;-75